Terminal Aerodrome Forecast
Issued by NWS Atlanta, GA

Home | Current Version | Previous Version | Text Only | Print | Product List | Glossary On
Versions: 1 2 3 4 5 6 7 8 9 10 11 12 13 14 15 16 17 18 19 20 21 22 23 24 25 26 27 28 29 30 31 32 33 34 35 36 37 38 39 40 41 42
000
FTUS42 KFFC 250756 AAA
TAFATL
TAF AMD
KATL 250756Z 2508/2612 30003KT 6SM BR OVC250
     FM251500 34003KT P6SM OVC100
     FM251800 34004KT 5SM -RA OVC025
     FM252100 06005KT 3SM -RASN OVC008
     FM252300 06006KT 1SM -RASN OVC005
      TEMPO 2523/2603 1/2SM SN OVC003
     FM260300 05005KT 2SM -SN OVC005
     FM260600 03005KT P6SM OVC006=

USA.gov is the U.S. government's official web portal to all federal, state and local government web resources and services.